Time;durP1;ratioP1;P1;durP2;ratioP2;P2;SDS_P1;SDS_P2;PMS_P1;PMS_P2;Temp;Humidity;BMP_temperature;BMP_pressure;BME280_temperature;BME280_humidity;BME280_pressure;Samples;Min_cycle;Max_cycle;Signal;HPM_P1;HPM_P2
2022/07/26 04:37:51;;;;;;;18.20;10.00;;;;;;;21.16;100.00;94145.09;5016877;28;20049;-87
2022/07/26 04:40:18;;;;;;;14.65;9.63;;;;;;;21.14;100.00;94152.66;5016129;28;20034;-87
2022/07/26 04:42:44;;;;;;;16.08;11.13;;;;;;;20.99;100.00;94152.28;5015579;28;20438;-86
2022/07/26 04:45:11;;;;;;;15.15;9.55;;;;;;;21.22;100.00;94151.72;4999332;28;20057;-89
2022/07/26 04:47:40;;;;;;;14.45;9.02;;;;;;;21.60;100.00;94161.09;5017818;28;20026;-89
2022/07/26 04:50:06;;;;;;;11.63;9.05;;;;;;;21.68;100.00;94164.72;5015877;28;20033;-89
2022/07/26 04:52:31;;;;;;;17.35;9.48;;;;;;;21.98;100.00;94160.88;5016168;28;20045;-86
2022/07/26 04:54:57;;;;;;;17.75;9.40;;;;;;;21.88;100.00;94160.25;5015435;28;20034;-87
2022/07/26 04:57:22;;;;;;;12.13;8.40;;;;;;;22.18;100.00;94161.72;5016939;28;20033;-86
2022/07/26 04:59:47;;;;;;;17.45;9.38;;;;;;;21.83;100.00;94163.19;4999344;28;20026;-86
2022/07/26 05:02:14;;;;;;;16.23;9.80;;;;;;;21.66;100.00;94158.97;5016607;28;20112;-86
2022/07/26 05:04:41;;;;;;;17.33;10.30;;;;;;;21.79;100.00;94162.31;5015527;28;20032;-86
2022/07/26 05:07:07;;;;;;;12.55;9.18;;;;;;;22.20;100.00;94156.81;4999324;28;20037;-86
2022/07/26 05:09:32;;;;;;;14.32;9.43;;;;;;;22.43;100.00;94159.59;5016611;28;20316;-86
2022/07/26 05:12:02;;;;;;;19.45;9.05;;;;;;;22.68;100.00;94150.59;5015353;28;20026;-87
2022/07/26 05:14:27;;;;;;;13.63;9.13;;;;;;;22.73;100.00;94151.09;4999104;28;20025;-86
2022/07/26 05:16:53;;;;;;;16.17;9.10;;;;;;;22.40;100.00;94152.28;5008769;28;20018;-87
2022/07/26 05:19:19;;;;;;;14.63;9.00;;;;;;;22.34;100.00;94147.56;5006479;28;20038;-87
2022/07/26 05:21:48;;;;;;;16.00;8.30;;;;;;;23.07;100.00;94141.81;5015587;28;20021;-86
2022/07/26 05:24:13;;;;;;;13.27;8.75;;;;;;;23.10;100.00;94141.88;5016698;28;20116;-86
2022/07/26 05:26:39;;;;;;;19.55;8.55;;;;;;;23.62;100.00;94149.72;5015354;28;20439;-87
2022/07/26 05:29:07;;;;;;;14.38;8.82;;;;;;;23.89;100.00;94149.78;5015479;28;20044;-87
2022/07/26 05:31:37;;;;;;;14.52;8.98;;;;;;;23.44;100.00;94149.41;4999571;28;20084;-86
2022/07/26 05:34:06;;;;;;;18.15;8.65;;;;;;;24.10;100.00;94149.38;5015296;28;20351;-86
2022/07/26 05:36:36;;;;;;;14.82;8.15;;;;;;;23.96;100.00;94151.78;5016354;28;20030;-87
2022/07/26 05:39:05;;;;;;;15.65;8.35;;;;;;;23.89;100.00;94151.66;5003247;28;20355;-86
2022/07/26 05:41:30;;;;;;;15.35;8.55;;;;;;;24.20;100.00;94152.53;5019937;28;20067;-86
2022/07/26 05:43:58;;;;;;;23.70;8.80;;;;;;;23.63;100.00;94158.50;5002243;28;20029;-86
2022/07/26 05:46:24;;;;;;;13.85;8.13;;;;;;;23.60;100.00;94157.31;5019843;28;20029;-86
2022/07/26 05:48:51;;;;;;;22.27;8.93;;;;;;;23.42;100.00;94154.34;5018842;28;20026;-86
2022/07/26 05:51:17;;;;;;;12.90;8.10;;;;;;;23.48;100.00;94158.25;5018608;28;20339;-86
2022/07/26 05:53:45;;;;;;;11.35;7.82;;;;;;;23.77;100.00;94153.38;5018650;28;20022;-86
2022/07/26 05:56:10;;;;;;;12.82;8.30;;;;;;;23.30;100.00;94156.03;5018511;28;20033;-86
2022/07/26 05:58:36;;;;;;;24.70;8.88;;;;;;;23.38;100.00;94148.91;5019614;28;20386;-86
2022/07/26 06:01:12;;;;;;;;;;;;;;;;;;;;;
2022/07/26 06:03:41;;;;;;;14.95;8.43;;;;;;;24.07;100.00;94162.69;5018427;28;20028;-87
2022/07/26 06:06:16;;;;;;;18.20;9.07;;;;;;;24.00;100.00;94152.63;5019661;28;20038;-87
2022/07/26 06:08:49;;;;;;;14.23;8.20;;;;;;;23.99;100.00;94156.44;5018685;28;20113;-87
2022/07/26 06:11:21;;;;;;;18.70;8.40;;;;;;;24.25;100.00;94152.25;5002411;28;20420;-88
2022/07/26 06:14:13;;;;;;;14.80;8.23;;;;;;;24.54;100.00;94153.41;5001897;28;20029;-87
2022/07/26 06:16:44;;;;;;;10.85;8.20;;;;;;;24.50;100.00;94154.50;5004617;28;20022;-87
2022/07/26 06:19:14;;;;;;;12.50;7.95;;;;;;;24.80;100.00;94143.84;5018401;28;20498;-87
2022/07/26 06:21:50;;;;;;;15.65;8.20;;;;;;;25.03;100.00;94147.53;5019529;28;20026;-86
2022/07/26 06:24:18;;;;;;;16.08;7.97;;;;;;;24.91;100.00;94149.31;5018093;28;20033;-87
2022/07/26 06:26:50;;;;;;;15.32;8.02;;;;;;;25.18;100.00;94151.91;5002112;28;20033;-87
2022/07/26 06:29:21;;;;;;;11.95;7.63;;;;;;;25.22;100.00;94151.97;5036873;28;20347;-87
2022/07/26 06:31:47;;;;;;;11.50;7.22;;;;;;;25.08;100.00;94142.63;5037540;28;20021;-88
2022/07/26 06:34:12;;;;;;;15.95;8.38;;;;;;;24.93;100.00;94146.28;5033052;28;20338;-87
2022/07/26 06:37:02;;;;;;;13.70;8.05;;;;;;;25.09;100.00;94151.41;5017822;28;20036;-87
2022/07/26 06:39:35;;;;;;;15.02;7.88;;;;;;;25.39;100.00;94147.91;5019163;28;20032;-87
2022/07/26 06:42:00;;;;;;;12.63;8.23;;;;;;;25.42;100.00;94144.50;5002245;28;20029;-87
2022/07/26 06:44:26;;;;;;;12.90;8.10;;;;;;;25.61;100.00;94151.63;5017103;28;20021;-88
2022/07/26 06:46:51;;;;;;;11.07;7.75;;;;;;;25.92;100.00;94146.91;5018333;28;20308;-87
2022/07/26 06:49:17;;;;;;;15.75;7.90;;;;;;;25.54;100.00;94149.63;5018244;28;20033;-87
2022/07/26 06:51:42;;;;;;;15.57;7.45;;;;;;;25.75;100.00;94150.97;5018921;28;20527;-87
2022/07/26 06:54:08;;;;;;;14.75;7.53;;;;;;;25.90;100.00;94145.72;5034134;28;20030;-88
2022/07/26 06:56:33;;;;;;;11.93;7.80;;;;;;;25.76;100.00;94147.13;5001281;28;20026;-87
2022/07/26 06:58:58;;;;;;;13.05;7.43;;;;;;;25.87;100.00;94143.78;5034109;28;20032;-87
2022/07/26 07:01:24;;;;;;;14.60;7.90;;;;;;;25.96;100.00;94144.22;5035006;28;20498;-85
2022/07/26 07:03:49;;;;;;;17.75;7.80;;;;;;;25.84;100.00;94139.91;5020242;28;20374;-85
2022/07/26 07:06:15;;;;;;;13.05;7.72;;;;;;;25.63;100.00;94141.28;5020693;28;20021;-85
2022/07/26 07:08:40;;;;;;;12.40;7.88;;;;;;;25.92;100.00;94141.53;5036998;28;20025;-84
2022/07/26 07:11:06;;;;;;;10.20;7.50;;;;;;;26.14;100.00;94141.69;5037956;28;20056;-85
2022/07/26 07:13:31;;;;;;;11.23;7.57;;;;;;;26.28;100.00;94133.00;5036836;28;20025;-85
2022/07/26 07:15:57;;;;;;;14.20;7.47;;;;;;;26.39;100.00;94133.03;5036839;28;20091;-84
2022/07/26 07:18:22;;;;;;;12.93;7.60;;;;;;;26.37;100.00;94133.41;5020542;28;20497;-85
2022/07/26 07:20:50;;;;;;;15.38;8.25;;;;;;;26.59;100.00;94136.22;5036689;28;20032;-85
2022/07/26 07:23:15;;;;;;;15.35;7.50;;;;;;;26.86;100.00;94127.94;5020616;28;20447;-85
2022/07/26 07:25:41;;;;;;;13.18;7.93;;;;;;;26.91;100.00;94124.88;5036699;28;20049;-84
2022/07/26 07:28:06;;;;;;;14.02;7.68;;;;;;;27.04;100.00;94121.84;5036807;28;20064;-84
2022/07/26 07:30:32;;;;;;;14.40;7.88;;;;;;;26.99;100.00;94119.53;5020232;28;20025;-85
2022/07/26 07:32:57;;;;;;;11.85;7.32;;;;;;;27.11;100.00;94111.09;5037545;28;20030;-85
2022/07/26 07:35:23;;;;;;;22.15;7.63;;;;;;;27.20;100.00;94114.22;5036499;28;20025;-84
2022/07/26 07:37:48;;;;;;;11.90;7.68;;;;;;;27.15;100.00;94111.91;5036335;28;20052;-84
2022/07/26 07:40:14;;;;;;;13.65;7.78;;;;;;;27.24;100.00;94108.84;5020076;28;20017;-84
2022/07/26 07:42:39;;;;;;;12.43;8.00;;;;;;;27.13;100.00;94100.75;5019993;28;20037;-84
2022/07/26 07:45:05;;;;;;;15.20;7.53;;;;;;;27.48;100.00;94104.66;5019766;28;20407;-85
2022/07/26 07:47:34;;;;;;;10.82;7.35;;;;;;;27.42;100.00;94100.81;5036266;28;20061;-84
2022/07/26 07:49:59;;;;;;;10.27;7.03;;;;;;;27.61;100.00;94098.94;5037552;28;20052;-83
2022/07/26 07:52:25;;;;;;;17.75;7.43;;;;;;;27.71;98.11;94100.09;5037869;28;20037;-84
2022/07/26 07:54:50;;;;;;;11.90;6.60;;;;;;;27.55;100.00;94100.47;5022729;28;20028;-84
2022/07/26 07:57:16;;;;;;;11.95;7.07;;;;;;;27.64;94.95;94101.63;5016335;28;20057;-85
2022/07/26 07:59:41;;;;;;;13.48;7.43;;;;;;;27.57;96.02;94100.84;4999816;28;20025;-85
2022/07/26 08:02:08;;;;;;;11.82;7.50;;;;;;;27.80;97.27;94100.47;5016260;28;20328;-85
2022/07/26 08:04:33;;;;;;;8.50;6.90;;;;;;;27.29;95.05;94091.56;5022365;28;20032;-86
2022/07/26 08:06:59;;;;;;;11.65;7.18;;;;;;;27.79;97.33;94094.31;5024466;28;20386;-85
2022/07/26 08:09:24;;;;;;;14.00;7.47;;;;;;;27.93;93.10;94093.56;5037255;28;20025;-85
2022/07/26 08:11:52;;;;;;;11.07;6.78;;;;;;;28.14;91.54;94093.91;5035837;28;20025;-85
2022/07/26 08:14:22;;;;;;;10.30;6.65;;;;;;;28.17;91.64;94098.53;5035655;28;20340;-85
2022/07/26 08:16:48;;;;;;;12.35;7.30;;;;;;;27.73;91.50;94095.06;5026173;28;20124;-86
2022/07/26 08:19:14;;;;;;;9.18;6.38;;;;;;;28.12;93.20;94096.19;5015723;28;20108;-85
2022/07/26 08:21:41;;;;;;;15.27;7.65;;;;;;;28.33;87.34;94090.81;5028782;28;20029;-85
2022/07/26 08:24:07;;;;;;;16.42;7.45;;;;;;;28.20;85.74;94095.84;5018135;28;20033;-85
2022/07/26 08:26:33;;;;;;;11.77;7.10;;;;;;;28.35;84.25;94088.50;5016896;28;20026;-85
2022/07/26 08:28:58;;;;;;;17.17;7.07;;;;;;;28.30;87.54;94099.69;5015752;28;20030;-85
2022/07/26 08:31:24;;;;;;;12.75;7.40;;;;;;;28.64;85.85;94088.41;5016826;28;20030;-85
2022/07/26 08:33:49;;;;;;;13.55;6.90;;;;;;;28.60;81.19;94090.34;5015670;28;20076;-85
2022/07/26 08:36:15;;;;;;;10.60;6.72;;;;;;;28.48;80.46;94090.78;4998505;28;20034;-85
2022/07/26 08:38:44;;;;;;;11.45;6.47;;;;;;;28.73;82.88;94095.31;5015774;28;20026;-85
2022/07/26 08:41:09;;;;;;;11.02;6.80;;;;;;;28.79;79.74;94091.03;5015756;28;20052;-85
2022/07/26 08:43:35;;;;;;;14.52;7.18;;;;;;;29.06;79.30;94093.25;5015222;28;20116;-85
2022/07/26 08:46:01;;;;;;;10.65;6.70;;;;;;;29.33;76.82;94093.47;5016762;28;20026;-86
2022/07/26 08:48:27;;;;;;;11.25;6.85;;;;;;;29.32;72.88;94101.97;5015650;28;20034;-85
2022/07/26 08:50:54;;;;;;;12.15;7.20;;;;;;;29.28;75.25;94098.53;5015648;28;20032;-85
2022/07/26 08:53:20;;;;;;;13.68;6.55;;;;;;;29.21;70.89;94097.41;5015181;28;20030;-85
2022/07/26 08:55:45;;;;;;;10.00;6.53;;;;;;;29.21;74.65;94091.25;5016013;28;20486;-86
2022/07/26 08:58:13;;;;;;;11.13;6.38;;;;;;;29.20;74.53;94095.88;5016759;28;20030;-86
2022/07/26 09:00:40;;;;;;;13.13;6.78;;;;;;;29.28;73.37;94101.25;5016736;28;20030;-84
2022/07/26 09:03:25;;;;;;;10.98;6.72;;;;;;;29.51;76.43;94100.72;5015126;28;20378;-84
2022/07/26 09:05:52;;;;;;;10.98;6.90;;;;;;;29.50;77.38;94104.59;4998961;28;20025;-85
2022/07/26 09:08:24;;;;;;;11.50;7.13;;;;;;;29.76;76.57;94100.53;5016618;28;20450;-85
2022/07/26 09:10:54;;;;;;;11.07;7.20;;;;;;;29.69;74.62;94099.81;5015647;28;20029;-83
2022/07/26 09:13:21;;;;;;;20.40;7.25;;;;;;;29.12;76.52;94110.56;5003132;28;20036;-84
2022/07/26 09:15:47;;;;;;;10.63;6.63;;;;;;;29.25;76.46;94105.50;5019238;28;20500;-84
2022/07/26 09:18:26;;;;;;;12.15;7.10;;;;;;;29.41;77.17;94101.53;5019063;28;20061;-83
2022/07/26 09:20:52;;;;;;;12.85;7.10;;;;;;;29.37;77.13;94101.56;5018200;28;20454;-84
2022/07/26 09:23:17;;;;;;;15.18;7.55;;;;;;;29.49;77.79;94094.97;5018733;28;20017;-83
2022/07/26 09:25:44;;;;;;;11.90;7.57;;;;;;;29.46;75.29;94093.81;5002977;28;20026;-84
2022/07/26 09:28:28;;;;;;;13.98;7.28;;;;;;;29.73;74.95;94106.75;5020209;28;20036;-85
2022/07/26 09:31:01;;;;;;;11.50;6.65;;;;;;;29.87;74.26;94105.09;5018955;28;20018;-85
2022/07/26 09:33:48;;;;;;;11.95;7.05;;;;;;;30.03;71.19;94102.66;5002502;28;20503;-85
2022/07/26 09:36:13;;;;;;;13.07;7.05;;;;;;;30.14;71.42;94099.09;5018655;28;20088;-83
2022/07/26 09:38:40;;;;;;;13.23;7.53;;;;;;;30.05;69.76;94108.44;5002810;28;20033;-84
2022/07/26 09:41:26;;;;;;;11.43;6.55;;;;;;;29.95;70.85;94100.41;5002531;28;20037;-84
2022/07/26 09:43:53;;;;;;;16.27;7.32;;;;;;;29.74;69.49;94113.66;5002312;28;20026;-84
2022/07/26 09:46:20;;;;;;;8.68;5.88;;;;;;;30.35;69.41;94110.84;5018772;28;20025;-85
2022/07/26 09:48:46;;;;;;;15.02;6.82;;;;;;;30.59;69.87;94112.53;5023342;28;20029;-84
2022/07/26 09:51:11;;;;;;;13.38;6.68;;;;;;;30.37;66.78;94119.31;5038232;28;20033;-83
2022/07/26 09:53:44;;;;;;;9.27;6.25;;;;;;;30.41;65.25;94112.72;5038321;28;20029;-84
2022/07/26 09:56:09;;;;;;;13.13;7.50;;;;;;;30.32;64.43;94112.41;5038429;28;20342;-84
2022/07/26 09:58:36;;;;;;;9.35;6.97;;;;;;;30.17;65.06;94114.50;5038348;28;20112;-84
2022/07/26 10:01:02;;;;;;;9.98;6.70;;;;;;;30.21;65.89;94114.47;5021677;28;20076;-83
2022/07/26 10:03:31;;;;;;;12.13;6.55;;;;;;;30.11;66.93;94124.97;5030115;28;20029;-84
2022/07/26 10:06:01;;;;;;;12.07;7.10;;;;;;;30.27;65.10;94115.56;5024283;28;20037;-84
2022/07/26 10:08:26;;;;;;;9.57;6.57;;;;;;;30.37;64.14;94119.31;5018258;28;20108;-84
2022/07/26 10:11:01;;;;;;;8.98;6.03;;;;;;;30.30;65.03;94118.25;5022299;28;20052;-84
2022/07/26 10:13:27;;;;;;;11.75;7.30;;;;;;;30.09;65.77;94113.81;5021547;28;20040;-83
2022/07/26 10:15:58;;;;;;;12.13;6.53;;;;;;;30.48;66.20;94109.19;5038003;28;20033;-84
2022/07/26 10:18:35;;;;;;;10.13;6.43;;;;;;;30.41;64.53;94110.00;5038320;28;20033;-84
2022/07/26 10:21:17;;;;;;;9.75;6.75;;;;;;;30.61;64.20;94112.88;5036544;28;20339;-84
2022/07/26 10:23:49;;;;;;;9.02;6.68;;;;;;;30.78;64.63;94112.38;5016851;28;20060;-86
2022/07/26 10:26:32;;;;;;;13.18;7.30;;;;;;;30.75;65.62;94113.94;5019151;28;20037;-84
2022/07/26 10:29:16;;;;;;;16.02;7.25;;;;;;;30.70;65.63;94103.53;5016337;28;20141;-84
2022/07/26 10:32:13;;;;;;;11.07;7.00;;;;;;;31.01;65.77;94106.28;5018049;28;20450;-86
2022/07/26 10:34:39;;;;;;;9.30;6.38;;;;;;;30.79;66.47;94100.38;5001617;28;20116;-86
2022/07/26 10:37:09;;;;;;;12.45;7.15;;;;;;;30.32;69.14;94104.31;5017736;28;20038;-84
2022/07/26 10:39:36;;;;;;;11.25;7.03;;;;;;;30.32;69.78;94107.78;5017984;28;20439;-85
2022/07/26 10:42:07;;;;;;;12.20;6.78;;;;;;;30.45;69.05;94104.56;5017616;28;20146;-83
2022/07/26 10:44:46;;;;;;;11.70;6.30;;;;;;;30.61;69.86;94104.00;5001085;28;20423;-84
2022/07/26 10:47:17;;;;;;;11.40;6.75;;;;;;;30.96;68.83;94098.59;5017769;28;20112;-84
2022/07/26 10:49:56;;;;;;;15.38;6.90;;;;;;;30.79;67.80;94105.78;5001666;28;20350;-85
2022/07/26 10:52:30;;;;;;;11.50;7.68;;;;;;;30.38;69.83;94107.34;5017486;28;20093;-84
2022/07/26 10:54:58;;;;;;;12.20;7.32;;;;;;;30.64;70.83;94113.28;5017274;28;20485;-85
2022/07/26 10:57:30;;;;;;;11.85;7.47;;;;;;;30.48;70.19;94103.78;5018547;28;20041;-85
2022/07/26 10:59:58;;;;;;;9.70;6.57;;;;;;;30.60;70.30;94099.78;5017332;28;20030;-86
2022/07/26 11:02:27;;;;;;;12.50;6.63;;;;;;;30.75;69.26;94105.81;5001792;28;20386;-85
2022/07/26 11:05:13;;;;;;;12.15;7.47;;;;;;;30.99;69.00;94098.56;5000819;28;20029;-85
2022/07/26 11:07:52;;;;;;;14.27;6.78;;;;;;;31.41;66.38;94103.81;5017178;28;20034;-84
2022/07/26 11:10:30;;;;;;;10.43;7.32;;;;;;;31.14;67.15;94095.66;5018194;28;21194;-85
2022/07/26 11:13:04;;;;;;;9.10;6.90;;;;;;;31.54;67.31;94090.50;5035887;28;20044;-85
2022/07/26 11:15:31;;;;;;;10.05;6.72;;;;;;;31.37;66.58;94100.41;5020278;28;20033;-85
2022/07/26 11:18:33;;;;;;;;;;;;;;;;;;;;;
2022/07/26 11:21:09;;;;;;;10.73;6.63;;;;;;;31.74;64.81;94087.84;5036932;28;20029;-84
2022/07/26 11:23:38;;;;;;;13.07;7.13;;;;;;;31.34;64.83;94095.81;5037656;28;20033;-84
2022/07/26 11:26:06;;;;;;;14.13;6.43;;;;;;;31.54;65.22;94084.28;5029197;28;20116;-85
2022/07/26 11:28:50;;;;;;;20.52;7.13;;;;;;;31.52;65.59;94094.78;5016737;28;20431;-85
2022/07/26 11:31:16;;;;;;;10.82;6.25;;;;;;;31.84;64.99;94082.69;5035530;28;20080;-84
2022/07/26 11:33:47;;;;;;;13.18;6.35;;;;;;;31.81;62.96;94086.22;5019750;28;20029;-86
2022/07/26 11:36:16;;;;;;;11.23;6.55;;;;;;;31.17;64.95;94084.81;5036310;28;20442;-85
2022/07/26 11:38:48;;;;;;;13.52;6.68;;;;;;;30.98;66.81;94090.84;5032974;28;20478;-85
2022/07/26 11:41:18;;;;;;;14.07;6.80;;;;;;;30.62;68.66;94086.59;5016543;28;20080;-83
2022/07/26 11:43:43;;;;;;;13.45;6.43;;;;;;;30.94;66.50;94084.72;5016193;28;20021;-84
2022/07/26 11:46:09;;;;;;;17.05;8.25;;;;;;;31.13;65.64;94077.91;5017072;28;20120;-84
2022/07/26 11:48:34;;;;;;;14.57;8.38;;;;;;;30.83;66.46;94074.81;5036240;28;20474;-87
2022/07/26 11:51:10;;;;;;;13.68;7.00;;;;;;;30.95;66.59;94070.03;5020444;28;20056;-85
2022/07/26 11:53:39;;;;;;;12.00;7.03;;;;;;;31.41;68.02;94081.41;5035751;28;20033;-86
2022/07/26 11:56:14;;;;;;;9.82;6.38;;;;;;;31.24;65.79;94078.56;5018089;28;20096;-85
2022/07/26 11:58:41;;;;;;;14.32;6.70;;;;;;;31.31;64.69;94074.97;5022626;28;20030;-85
2022/07/26 12:01:10;;;;;;;13.55;6.70;;;;;;;31.25;64.05;94084.72;5016268;28;20435;-85
2022/07/26 12:03:37;;;;;;;12.65;5.97;;;;;;;31.33;65.30;94066.44;4999551;28;20128;-86
2022/07/26 12:06:11;;;;;;;15.23;6.50;;;;;;;31.90;63.48;94061.31;5018235;28;20104;-85
2022/07/26 12:08:57;;;;;;;9.90;5.85;;;;;;;31.79;62.09;94058.81;5017309;28;20434;-84
2022/07/26 12:11:24;;;;;;;12.57;5.72;;;;;;;31.99;62.84;94053.44;4999633;28;20446;-87
2022/07/26 12:13:52;;;;;;;13.77;6.75;;;;;;;31.46;62.15;94059.28;5017876;28;20120;-91
2022/07/26 12:17:04;;;;;;;8.10;6.13;;;;;;;31.01;64.74;94054.88;5030025;28;20422;-90
2022/07/26 12:19:29;;;;;;;11.13;6.10;;;;;;;31.33;63.15;94045.56;5036587;28;20120;-89
2022/07/26 12:22:18;;;;;;;10.32;6.07;;;;;;;31.31;63.85;94050.63;5036057;28;20032;-90
2022/07/26 12:25:00;;;;;;;12.13;5.80;;;;;;;31.83;62.11;94054.09;5035573;28;20021;-89
2022/07/26 12:27:31;;;;;;;12.80;6.27;;;;;;;32.38;59.15;94053.91;5020197;28;20069;-89
2022/07/26 12:29:59;;;;;;;15.07;6.03;;;;;;;31.52;61.87;94063.06;5037203;28;20030;-89
2022/07/26 12:32:42;;;;;;;9.70;5.53;;;;;;;31.96;60.75;94049.59;5037023;28;20033;-90
2022/07/26 12:35:10;;;;;;;9.23;5.25;;;;;;;31.80;61.84;94061.09;5019653;28;20025;-87
2022/07/26 12:37:58;;;;;;;12.85;6.20;;;;;;;31.48;63.45;94048.06;5037050;28;20198;-89
2022/07/26 12:40:44;;;;;;;13.15;6.18;;;;;;;30.91;65.08;94047.69;5036201;28;20036;-91
2022/07/26 12:43:14;;;;;;;8.20;5.50;;;;;;;31.18;64.90;94048.47;5018439;28;20056;-89
2022/07/26 12:45:42;;;;;;;12.73;6.63;;;;;;;31.06;64.65;94040.91;5035218;28;20104;-90
2022/07/26 12:48:11;;;;;;;11.25;5.70;;;;;;;30.76;65.80;94042.47;5036655;28;20029;-91
2022/07/26 12:50:37;;;;;;;13.18;6.55;;;;;;;31.04;65.21;94040.53;5035522;28;20060;-89
2022/07/26 12:53:07;;;;;;;8.82;6.25;;;;;;;31.52;64.37;94032.50;5035553;28;20061;-92
2022/07/26 12:55:36;;;;;;;9.40;6.10;;;;;;;31.57;63.33;94040.94;5035508;28;20021;-90
2022/07/26 12:58:07;;;;;;;16.50;6.32;;;;;;;31.17;66.24;94048.84;5035630;28;20102;-90
2022/07/26 13:00:32;;;;;;;12.38;6.68;;;;;;;31.36;66.16;94047.44;5035493;28;20033;-88
2022/07/26 13:02:57;;;;;;;10.55;6.00;;;;;;;31.84;65.69;94047.47;5036305;28;20101;-88
2022/07/26 13:05:23;;;;;;;13.23;6.32;;;;;;;32.00;64.50;94047.59;5035655;28;20025;-89
2022/07/26 13:07:50;;;;;;;11.07;6.20;;;;;;;32.56;63.81;94037.31;5035552;28;20036;-88
2022/07/26 13:10:15;;;;;;;9.77;6.55;;;;;;;33.26;59.40;94037.38;5035556;28;20029;-87
2022/07/26 13:12:41;;;;;;;13.80;6.25;;;;;;;33.65;58.07;94037.69;5032809;28;20040;-88
2022/07/26 13:15:07;;;;;;;10.38;6.50;;;;;;;33.80;59.31;94035.38;5022625;28;20033;-91
2022/07/26 13:17:32;;;;;;;10.45;6.47;;;;;;;32.88;59.40;94035.88;5016430;28;20057;-89
2022/07/26 13:19:58;;;;;;;13.57;6.60;;;;;;;32.98;60.83;94036.84;5016007;28;20025;-90
2022/07/26 13:22:23;;;;;;;16.15;6.10;;;;;;;33.65;59.45;94034.97;5015466;28;20026;-88
2022/07/26 13:24:48;;;;;;;10.57;6.20;;;;;;;33.22;60.75;94029.34;5015271;28;20104;-89
2022/07/26 13:27:14;;;;;;;11.80;6.75;;;;;;;32.96;61.25;94031.84;4999526;28;20030;-88
2022/07/26 13:29:39;;;;;;;11.90;6.20;;;;;;;33.38;60.33;94023.16;5015896;28;20026;-87
2022/07/26 13:32:05;;;;;;;13.00;6.00;;;;;;;32.70;62.75;94018.03;5015476;28;20084;-90
2022/07/26 13:34:50;;;;;;;16.08;6.47;;;;;;;31.89;64.49;94033.50;5014675;28;20105;-88
2022/07/26 13:37:19;;;;;;;12.68;6.45;;;;;;;30.53;69.38;94024.94;5019314;28;20033;-89
2022/07/26 13:39:47;;;;;;;10.32;6.45;;;;;;;29.87;77.67;94032.94;5020130;28;20029;-88
2022/07/26 13:42:12;;;;;;;14.25;6.70;;;;;;;29.84;77.41;94030.28;5035259;28;20044;-89
2022/07/26 13:44:38;;;;;;;11.85;6.38;;;;;;;29.51;77.36;94024.41;5019314;28;20026;-88
2022/07/26 13:47:06;;;;;;;10.75;6.60;;;;;;;29.71;78.44;94025.41;5035420;28;20521;-89
2022/07/26 13:49:31;;;;;;;23.42;7.13;;;;;;;29.48;80.29;94026.72;5035186;28;20373;-87
2022/07/26 13:52:00;;;;;;;13.65;6.47;;;;;;;29.39;82.84;94017.53;5035293;28;20029;-87
2022/07/26 13:54:36;;;;;;;13.30;6.47;;;;;;;30.13;78.39;94006.47;5034708;28;20048;-88
2022/07/26 13:57:03;;;;;;;12.63;6.22;;;;;;;29.71;74.00;94008.41;5036774;28;20112;-89
2022/07/26 13:59:29;;;;;;;18.50;6.45;;;;;;;29.18;76.56;94009.19;5038454;28;20064;-88
2022/07/26 14:01:55;;;;;;;14.30;5.95;;;;;;;29.53;72.71;94016.66;5038968;28;20030;-88
2022/07/26 14:04:21;;;;;;;13.27;5.72;;;;;;;29.60;73.04;94022.75;5021992;28;20025;-92
2022/07/26 14:06:47;;;;;;;15.25;7.18;;;;;;;29.45;74.73;94022.13;5021981;28;20454;-90
2022/07/26 14:09:13;;;;;;;13.40;5.90;;;;;;;30.16;71.30;94035.38;5021938;28;20025;-90
2022/07/26 14:11:39;;;;;;;11.00;6.40;;;;;;;29.48;75.89;94015.94;5021893;28;20029;-89
2022/07/26 14:14:05;;;;;;;12.02;5.78;;;;;;;29.44;76.93;94003.63;5022213;28;20028;-90
2022/07/26 14:16:31;;;;;;;14.88;5.90;;;;;;;29.09;76.97;94011.56;5038139;28;20120;-89
2022/07/26 14:18:58;;;;;;;13.77;5.40;;;;;;;29.02;73.14;94014.31;5022162;28;20554;-89
2022/07/26 14:21:31;;;;;;;13.07;5.63;;;;;;;28.79;74.77;94007.47;5022062;28;20032;-88
2022/07/26 14:23:57;;;;;;;10.00;5.15;;;;;;;29.76;67.68;94013.38;5021396;28;20036;-87
2022/07/26 14:26:24;;;;;;;11.88;4.90;;;;;;;30.10;66.46;94007.28;5038110;28;20032;-88
2022/07/26 14:28:50;;;;;;;12.55;5.10;;;;;;;30.19;64.93;94012.97;5021847;28;20115;-88
2022/07/26 14:31:16;;;;;;;11.80;5.65;;;;;;;31.04;63.26;94016.19;5022075;28;20056;-88
2022/07/26 14:33:41;;;;;;;10.75;5.18;;;;;;;30.81;63.25;94011.50;5021801;28;20025;-88
2022/07/26 14:36:08;;;;;;;9.23;4.78;;;;;;;30.97;61.39;94013.59;5021588;28;20038;-88
2022/07/26 14:38:34;;;;;;;13.50;5.03;;;;;;;30.77;63.08;94018.88;5038224;28;20033;-88
2022/07/26 14:41:02;;;;;;;7.03;4.53;;;;;;;32.10;58.20;94020.72;5021576;28;20346;-88
2022/07/26 14:43:28;;;;;;;8.88;4.90;;;;;;;32.69;57.38;94029.28;5038868;28;20037;-88
2022/07/26 14:45:53;;;;;;;8.27;4.80;;;;;;;34.30;53.27;94021.72;5037666;28;20033;-89
2022/07/26 14:48:19;;;;;;;10.10;4.63;;;;;;;36.35;48.35;94007.66;5038856;28;20439;-89
2022/07/26 14:50:45;;;;;;;8.70;4.72;;;;;;;36.99;48.36;94011.94;5037652;28;20062;-90
2022/07/26 14:53:14;;;;;;;9.63;5.22;;;;;;;36.45;49.22;94006.50;5020820;28;20084;-90
2022/07/26 14:55:40;;;;;;;8.73;5.20;;;;;;;35.87;50.44;94005.75;5020959;28;20033;-90
2022/07/26 14:58:06;;;;;;;6.40;4.38;;;;;;;37.32;47.59;94003.28;5037286;28;20037;-89
2022/07/26 15:00:31;;;;;;;9.30;4.78;;;;;;;37.23;48.04;93986.09;5037411;28;20033;-89
2022/07/26 15:02:57;;;;;;;9.35;4.68;;;;;;;36.95;48.11;93997.66;5021042;28;20056;-89
2022/07/26 15:05:24;;;;;;;8.68;4.68;;;;;;;36.82;48.64;93991.53;5037410;28;20041;-89
2022/07/26 15:07:49;;;;;;;10.40;4.70;;;;;;;39.08;44.65;93998.19;5037316;28;20422;-90
2022/07/26 15:10:15;;;;;;;8.48;4.85;;;;;;;39.18;43.46;93993.47;5036437;28;20041;-89
2022/07/26 15:12:41;;;;;;;5.57;4.43;;;;;;;37.77;45.44;93981.97;5036944;28;20494;-89
2022/07/26 15:15:07;;;;;;;13.82;4.47;;;;;;;38.61;44.19;93976.44;5020531;28;20148;-89
2022/07/26 15:17:33;;;;;;;7.45;4.47;;;;;;;38.95;43.58;93984.72;5037035;28;20033;-90
2022/07/26 15:19:59;;;;;;;11.25;4.93;;;;;;;40.67;39.92;93981.38;5036765;28;20036;-89
2022/07/26 15:22:25;;;;;;;10.15;5.13;;;;;;;37.42;43.91;93967.78;5037280;28;20355;-88
2022/07/26 15:24:51;;;;;;;10.68;4.80;;;;;;;37.11;46.29;93969.41;5036804;28;20033;-88
2022/07/26 15:27:16;;;;;;;14.57;5.47;;;;;;;36.31;47.64;93968.84;5037254;28;20033;-89
2022/07/26 15:29:42;;;;;;;13.73;5.03;;;;;;;37.09;47.03;93963.63;5037442;28;20494;-88
2022/07/26 15:32:09;;;;;;;9.23;4.45;;;;;;;38.85;44.16;93964.81;5037624;28;20435;-88
2022/07/26 15:34:35;;;;;;;8.35;4.55;;;;;;;37.44;45.06;93963.41;5037975;28;20498;-88
2022/07/26 15:37:49;;;;;;;;;;;;;;;;;;;;;
2022/07/26 15:40:26;;;;;;;11.68;4.95;;;;;;;34.83;55.04;93956.09;5018000;28;20458;-89
2022/07/26 15:43:01;;;;;;;7.65;5.05;;;;;;;36.30;52.12;93959.13;5016876;28;20038;-88
2022/07/26 15:45:39;;;;;;;;;;;;;;;;;;;;;
2022/07/26 15:51:01;;;;;;;;;;;;;;;;;;;;;
2022/07/26 15:53:38;;;;;;;;;;;;;;;;;;;;;
2022/07/26 15:56:34;;;;;;;;;;;;;;;;;;;;;
2022/07/26 15:59:09;;;;;;;;;;;;;;;;;;;;;
2022/07/26 16:04:31;;;;;;;8.13;4.55;;;;;;;35.79;50.40;93953.44;5006269;28;20092;-88
2022/07/26 16:07:54;;;;;;;9.93;4.80;;;;;;;39.21;42.50;93954.19;5017645;28;20053;-88
2022/07/26 16:10:32;;;;;;;;;;;;;;;;;;;;;
2022/07/26 16:13:00;;;;;;;16.80;4.47;;;;;;;39.54;42.37;93941.66;5017234;28;20427;-89
2022/07/26 16:15:38;;;;;;;;;;;;;;;;;;;;;
2022/07/26 16:18:14;;;;;;;;;;;;;;;;;;;;;
2022/07/26 16:20:50;;;;;;;;;;;;;;;;;;;;;
2022/07/26 16:23:37;;;;;;;;;;;;;;;;;;;;;
2022/07/26 16:26:14;;;;;;;;;;;;;;;;;;;;;
2022/07/26 16:29:02;;;;;;;;;;;;;;;;;;;;;
2022/07/26 16:31:40;;;;;;;;;;;;;;;;;;;;;
2022/07/26 16:34:09;;;;;;;10.00;4.30;;;;;;;41.09;40.20;93924.56;5016156;28;20026;-87
2022/07/26 16:36:38;;;;;;;10.45;4.72;;;;;;;41.96;39.09;93924.38;5017433;28;20065;-88
2022/07/26 16:39:19;;;;;;;;;;;;;;;;;;;;;
2022/07/26 16:41:50;;;;;;;9.10;4.70;;;;;;;40.76;40.91;93922.13;5015995;28;20022;-89